METAR AND TAF INFORMATION
METAR FOR LFMN
ADDS - METARS form results

(2315 UTC 22 May 2018)
Data provider http://aviationweather.gov/adds/metars/
 
METAR text: LFMN 222300Z 33004KT 9999 FEW083 BKN110 17/15 Q1016 NOSIG
Conditions at: LFMN (NICE/COTE D'AZUR, FR) observed 2300 UTC 22 May 2018
Temperature: 17.0°C (63°F)
Dewpoint: 15.0°C (59°F) [RH = 88%]
Pressure (altimeter): 30.00 inches Hg (1016.0 mb)
Winds: from the NNW (330 degrees) at 5 MPH (4 knots; 2.1 m/s)
Visibility: 6 or more miles (10+ km)
Ceiling: 11000 feet AGL
Clouds: few clouds at 8300 feet AGL
broken clouds at 11000 feet AGL
Weather: no significant weather observed at this time

METAR text: LFMN 222230Z 33004KT 9999 FEW083 BKN100 17/15 Q1016 NOSIG
Conditions at: LFMN (NICE/COTE D'AZUR, FR) observed 2230 UTC 22 May 2018
Temperature: 17.0°C (63°F)
Dewpoint: 15.0°C (59°F) [RH = 88%]
Pressure (altimeter): 30.00 inches Hg (1016.0 mb)
Winds: from the NNW (330 degrees) at 5 MPH (4 knots; 2.1 m/s)
Visibility: 6 or more miles (10+ km)
Ceiling: 10000 feet AGL
Clouds: few clouds at 8300 feet AGL
broken clouds at 10000 feet AGL
Weather: no significant weather observed at this time

Forecast for: LFMN (NICE/COTE D'AZUR, FR)
Text: TAF LFMN 222000Z 2221/2403 34010KT 9999 FEW030 SCT070
Forecast period: 2100 UTC 22 May 2018 to 0200 UTC 23 May 2018
Forecast type: FROM: standard forecast or significant change
Winds: from the NNW (340 degrees) at 12 MPH (10 knots; 5.2 m/s)
Visibility: 6 or more miles (10+ km)
Clouds: few clouds at 3000 feet AGL
scattered clouds at 7000 feet AGL
Weather: no significant weather forecast for this period
Forecast for: LFMN (NICE/COTE D'AZUR, FR)
Text: TAF LFMN 222000Z 2221/2403 34010KT 9999 FEW030 SCT070
Forecast period: 2100 UTC 22 May 2018 to 0200 UTC 23 May 2018
Forecast type: FROM: standard forecast or significant change
Winds: from the NNW (340 degrees) at 12 MPH (10 knots; 5.2 m/s)
Visibility: 6 or more miles (10+ km)
Clouds: few clouds at 3000 feet AGL
scattered clouds at 7000 feet AGL
Weather: no significant weather forecast for this period
Forecast for: LFMN (NICE/COTE D'AZUR, FR)
Text: TAF LFMN 222000Z 2221/2403 34010KT 9999 FEW030 SCT070
Forecast period: 2300 UTC 22 May 2018 to 0100 UTC 23 May 2018
Forecast type: TEMPORARY: The following changes expected for less than half the time period
Winds: from the WSW (240 degrees) at 8 MPH (7 knots; 3.6 m/s)
Weather: no significant weather forecast for this period
Forecast for: LFMN (NICE/COTE D'AZUR, FR)
Text: TAF LFMN 222000Z 2221/2403 34010KT 9999 FEW030 SCT070
Forecast period: 2300 UTC 22 May 2018 to 0100 UTC 23 May 2018
Forecast type: TEMPORARY: The following changes expected for less than half the time period
Winds: from the WSW (240 degrees) at 8 MPH (7 knots; 3.6 m/s)
Weather: no significant weather forecast for this period
Forecast for: LFMN (NICE/COTE D'AZUR, FR)
Text: TAF LFMN 222000Z 2221/2403 34010KT 9999 FEW030 SCT070
Forecast period: 0200 to 0700 UTC 23 May 2018
Forecast type: BECOMING: Conditions expected to become as follows by 0400 UTC 23 May 2018
Winds: from the NNW (340 degrees) at 12 MPH (10 knots; 5.2 m/s)
Visibility: 6 or more miles (10+ km)
Weather: no significant weather forecast for this period
Forecast for: LFMN (NICE/COTE D'AZUR, FR)
Text: TAF LFMN 222000Z 2221/2403 34010KT 9999 FEW030 SCT070
Forecast period: 0200 to 0700 UTC 23 May 2018
Forecast type: BECOMING: Conditions expected to become as follows by 0400 UTC 23 May 2018
Winds: from the NNW (340 degrees) at 12 MPH (10 knots; 5.2 m/s)
Visibility: 6 or more miles (10+ km)
Weather: no significant weather forecast for this period
Forecast for: LFMN (NICE/COTE D'AZUR, FR)
Text: TAF LFMN 222000Z 2221/2403 34010KT 9999 FEW030 SCT070
Forecast period: 0700 to 1700 UTC 23 May 2018
Forecast type: BECOMING: Conditions expected to become as follows by 0900 UTC 23 May 2018
Winds: from the S (180 degrees) at 12 MPH (10 knots; 5.2 m/s)
Visibility: 6 or more miles (10+ km)
Weather: no significant weather forecast for this period
Forecast for: LFMN (NICE/COTE D'AZUR, FR)
Text: TAF LFMN 222000Z 2221/2403 34010KT 9999 FEW030 SCT070
Forecast period: 0700 to 1700 UTC 23 May 2018
Forecast type: BECOMING: Conditions expected to become as follows by 0900 UTC 23 May 2018
Winds: from the S (180 degrees) at 12 MPH (10 knots; 5.2 m/s)
Visibility: 6 or more miles (10+ km)
Weather: no significant weather forecast for this period
Forecast for: LFMN (NICE/COTE D'AZUR, FR)
Text: TAF LFMN 222000Z 2221/2403 34010KT 9999 FEW030 SCT070
Forecast period: 1200 to 1700 UTC 23 May 2018
Forecast type: TEMPORARY: The following changes expected for less than half the time period
Clouds: few clouds at 5000 feet AGL
Weather: no significant weather forecast for this period
Forecast for: LFMN (NICE/COTE D'AZUR, FR)
Text: TAF LFMN 222000Z 2221/2403 34010KT 9999 FEW030 SCT070
Forecast period: 1200 to 1700 UTC 23 May 2018
Forecast type: TEMPORARY: The following changes expected for less than half the time period
Clouds: few clouds at 5000 feet AGL
Weather: no significant weather forecast for this period
Forecast for: LFMN (NICE/COTE D'AZUR, FR)
Text: TAF LFMN 222000Z 2221/2403 34010KT 9999 FEW030 SCT070
Forecast period: 1700 to 2200 UTC 23 May 2018
Forecast type: BECOMING: Conditions expected to become as follows by 1900 UTC 23 May 2018
Winds: variable direction winds at 3 MPH (3 knots; 1.6 m/s)
Visibility: 6 or more miles (10+ km)
Weather: no significant weather forecast for this period
Forecast for: LFMN (NICE/COTE D'AZUR, FR)
Text: TAF LFMN 222000Z 2221/2403 34010KT 9999 FEW030 SCT070
Forecast period: 1700 to 2200 UTC 23 May 2018
Forecast type: BECOMING: Conditions expected to become as follows by 1900 UTC 23 May 2018
Winds: variable direction winds at 3 MPH (3 knots; 1.6 m/s)
Visibility: 6 or more miles (10+ km)
Weather: no significant weather forecast for this period
Forecast for: LFMN (NICE/COTE D'AZUR, FR)
Text: TAF LFMN 222000Z 2221/2403 34010KT 9999 FEW030 SCT070
Forecast period: 2200 UTC 23 May 2018 to 0300 UTC 24 May 2018
Forecast type: BECOMING: Conditions expected to become as follows by 0000 UTC 24 May 2018
Winds: from the ENE (60 degrees) at 12 MPH (10 knots; 5.2 m/s)
Visibility: 6 or more miles (10+ km)
Ceiling: 1400 feet AGL
Clouds: broken clouds at 1400 feet AGL
Weather: no significant weather forecast for this period
Forecast for: LFMN (NICE/COTE D'AZUR, FR)
Text: TAF LFMN 222000Z 2221/2403 34010KT 9999 FEW030 SCT070
Forecast period: 2200 UTC 23 May 2018 to 0300 UTC 24 May 2018
Forecast type: BECOMING: Conditions expected to become as follows by 0000 UTC 24 May 2018
Winds: from the ENE (60 degrees) at 12 MPH (10 knots; 5.2 m/s)
Visibility: 6 or more miles (10+ km)
Ceiling: 1400 feet AGL
Clouds: broken clouds at 1400 feet AGL
Weather: no significant weather forecast for this period
Forecast for: LFMN (NICE/COTE D'AZUR, FR)
Text: TAF LFMN 222000Z 2221/2403 34010KT 9999 FEW030 SCT070
Forecast period: 0000 to 0300 UTC 24 May 2018
Forecast type: TEMPORARY: The following changes expected for less than half the time period
Visibility: 2.49 miles (4.01 km)
Ceiling: 800 feet AGL
Clouds: overcast cloud deck at 800 feet AGL
Weather: BR  (mist)
Forecast for: LFMN (NICE/COTE D'AZUR, FR)
Text: TAF LFMN 222000Z 2221/2403 34010KT 9999 FEW030 SCT070
Forecast period: 0000 to 0300 UTC 24 May 2018
Forecast type: TEMPORARY: The following changes expected for less than half the time period
Visibility: 2.49 miles (4.01 km)
Ceiling: 800 feet AGL
Clouds: overcast cloud deck at 800 feet AGL
Weather: BR  (mist)

 AIRPORT MAP

 RUNWAY INFORMATION
Runway 04L Runway length 8995 ft Runway width 148 ft
Runway elevation 10 ft Runway displaced threshold 0 ft Runway heading 45
Runway 22R Runway length 8995 ft Runway width 148 ft
Runway elevation 10 ft Runway displaced threshold 575 ft Runway heading 225
Runway 04R Runway length 9712 ft Runway width 148 ft
Runway elevation 10 ft Runway displaced threshold 0 ft Runway heading 45
Runway 22L Runway length 9712 ft Runway width 148 ft
Runway elevation 12 ft Runway displaced threshold 0 ft Runway heading 225

 AIRPORT FREQUENCIES
Type A/D Name NICE APP Frequency 124.175 MHZ
Type ATIS Name NICE ATIS Frequency 129.6 MHZ
Type GND Name NICE GND Frequency 121.775 MHZ
Type TWR Name NICE TWR Frequency 118.7 MHZ

 AIRPORT NEAR NAVIGATION AIDS
Type VOR-DME Name Nice Cote D Azur Frequency 109650 KHZ
Type VOR-DME Name Cagnes Sur Mer Frequency 109200 KHZ
Type NDB Name Nice Frequency 399 KHZ
Type VOR-DME Name Nice Frequency 112400 KHZ



Powered by Virtual Airlines Manager [v2.6.2]